createdAt,value
2017-11-29T00:00:49.026Z,3.10
2017-11-29T00:03:16.481Z,3.10
2017-11-29T00:05:43.952Z,3.20
2017-11-29T00:08:11.412Z,3.20
2017-11-29T00:10:38.892Z,3.20
2017-11-29T00:13:06.348Z,3.20
2017-11-29T00:15:33.813Z,3.20
2017-11-29T00:18:01.285Z,3.20
2017-11-29T00:20:28.754Z,3.20
2017-11-29T00:22:58.167Z,3.20
2017-11-29T00:25:26.402Z,3.20
2017-11-29T00:27:53.857Z,3.20
2017-11-29T00:30:21.333Z,3.20
2017-11-29T00:32:48.789Z,3.30
2017-11-29T00:35:16.265Z,3.30
2017-11-29T00:37:44.497Z,3.30
2017-11-29T00:40:11.995Z,3.30
2017-11-29T00:42:39.440Z,3.40
2017-11-29T00:45:06.912Z,3.40
2017-11-29T00:47:35.152Z,3.40
2017-11-29T00:50:02.621Z,3.40
2017-11-29T00:52:30.084Z,3.50
2017-11-29T00:54:57.557Z,3.50
2017-11-29T00:57:25.785Z,3.50
2017-11-29T00:59:53.258Z,3.50
2017-11-29T01:02:20.724Z,3.50
2017-11-29T01:04:49.003Z,3.50
2017-11-29T01:07:16.465Z,3.40
2017-11-29T01:09:43.919Z,3.50
2017-11-29T01:12:12.313Z,3.40
2017-11-29T01:14:40.544Z,3.50
2017-11-29T01:17:08.012Z,3.50
2017-11-29T01:19:35.472Z,3.50
2017-11-29T01:22:02.941Z,3.60
2017-11-29T01:24:30.403Z,3.50
2017-11-29T01:26:57.874Z,3.60
2017-11-29T01:29:26.103Z,3.50
2017-11-29T01:31:53.957Z,3.50
2017-11-29T01:34:21.421Z,3.50
2017-11-29T01:36:48.884Z,3.50
2017-11-29T01:39:16.340Z,3.50
2017-11-29T01:41:43.808Z,3.50
2017-11-29T01:44:11.272Z,3.50
2017-11-29T01:46:38.744Z,3.50
2017-11-29T01:49:06.253Z,3.50
2017-11-29T01:51:33.940Z,3.50
2017-11-29T01:54:01.420Z,3.50
2017-11-29T01:56:28.888Z,3.40
2017-11-29T01:58:57.112Z,3.30
2017-11-29T02:01:24.584Z,3.30
2017-11-29T02:03:52.048Z,3.40
2017-11-29T02:06:26.329Z,3.30
2017-11-29T02:08:53.806Z,3.40
2017-11-29T02:11:21.268Z,3.30
2017-11-29T02:13:48.735Z,3.30
2017-11-29T02:16:16.207Z,3.20
2017-11-29T02:18:43.677Z,3.20
2017-11-29T02:21:11.902Z,3.10
2017-11-29T02:23:39.372Z,3.10
2017-11-29T02:26:06.851Z,3.10
2017-11-29T02:28:34.306Z,3.10
2017-11-29T02:31:01.765Z,3.10
2017-11-29T02:33:29.239Z,3.00
2017-11-29T02:35:57.475Z,2.90
2017-11-29T02:38:24.946Z,2.90
2017-11-29T02:41:04.308Z,2.90
2017-11-29T02:43:32.541Z,2.70
2017-11-29T02:46:00.007Z,2.70
2017-11-29T02:48:27.478Z,2.70
2017-11-29T02:50:54.937Z,2.80
2017-11-29T02:53:22.409Z,2.80
2017-11-29T02:55:50.656Z,2.90
2017-11-29T02:58:18.129Z,2.80
2017-11-29T03:00:45.584Z,2.90
2017-11-29T03:03:13.057Z,2.90
2017-11-29T03:05:41.282Z,2.90
2017-11-29T03:08:08.753Z,2.90
2017-11-29T03:10:36.214Z,2.90
2017-11-29T03:13:03.680Z,3.00
2017-11-29T03:15:31.161Z,2.90
2017-11-29T03:17:59.383Z,2.90
2017-11-29T03:20:26.853Z,2.90
2017-11-29T03:22:54.310Z,2.90
2017-11-29T03:25:21.798Z,2.90
2017-11-29T03:27:50.029Z,2.90
2017-11-29T03:30:17.506Z,2.90
2017-11-29T03:32:44.969Z,2.90
2017-11-29T03:35:12.441Z,3.00
2017-11-29T03:37:39.908Z,3.10
2017-11-29T03:40:08.145Z,3.10
2017-11-29T03:42:35.605Z,3.10
2017-11-29T03:45:03.076Z,3.00
2017-11-29T03:47:30.540Z,3.00
2017-11-29T03:49:58.021Z,3.00
2017-11-29T03:52:26.244Z,2.90
2017-11-29T03:54:53.718Z,2.90
2017-11-29T03:57:21.182Z,2.90
2017-11-29T03:59:48.644Z,2.80
2017-11-29T04:02:16.109Z,2.90
2017-11-29T04:04:44.346Z,2.90
2017-11-29T04:07:11.805Z,2.80
2017-11-29T04:09:39.276Z,2.90
2017-11-29T04:12:06.741Z,2.80
2017-11-29T04:14:34.217Z,2.90
2017-11-29T04:17:02.456Z,2.80
2017-11-29T04:19:29.916Z,2.80
2017-11-29T04:21:57.403Z,2.90
2017-11-29T04:24:25.200Z,2.90
2017-11-29T04:26:52.670Z,2.90
2017-11-29T04:29:20.128Z,2.90
2017-11-29T04:31:47.612Z,2.90
2017-11-29T04:34:15.067Z,2.90
2017-11-29T04:36:42.563Z,2.90
2017-11-29T04:39:10.804Z,3.00
2017-11-29T04:41:38.272Z,2.90
2017-11-29T04:44:05.762Z,3.00
2017-11-29T04:46:33.980Z,2.90
2017-11-29T04:49:01.452Z,2.90
2017-11-29T04:51:29.698Z,2.90
2017-11-29T04:53:57.161Z,2.90
2017-11-29T04:56:25.396Z,2.90
2017-11-29T04:58:52.860Z,2.90
2017-11-29T05:01:20.342Z,2.90
2017-11-29T05:03:47.816Z,2.90
2017-11-29T05:06:15.280Z,2.90
2017-11-29T05:08:42.745Z,2.90
2017-11-29T05:11:10.216Z,2.90
2017-11-29T05:13:38.444Z,2.90
2017-11-29T05:16:05.918Z,2.90
2017-11-29T05:18:33.383Z,2.90
2017-11-29T05:21:00.854Z,2.90
2017-11-29T05:23:28.326Z,2.90
2017-11-29T05:25:56.549Z,2.90
2017-11-29T05:28:24.025Z,2.90
2017-11-29T05:30:51.496Z,2.80
2017-11-29T05:33:18.984Z,2.80
2017-11-29T05:35:46.453Z,2.80
2017-11-29T05:38:13.924Z,2.80
2017-11-29T05:40:41.380Z,2.80
2017-11-29T05:43:08.852Z,2.80
2017-11-29T05:45:36.312Z,2.80
2017-11-29T05:48:03.796Z,2.80
2017-11-29T05:50:31.263Z,2.80
2017-11-29T05:52:58.728Z,2.80
2017-11-29T05:55:26.954Z,2.80
2017-11-29T05:57:54.433Z,2.80
2017-11-29T06:00:21.906Z,2.80
2017-11-29T06:02:49.368Z,2.70
2017-11-29T06:05:17.602Z,2.80
2017-11-29T06:07:45.069Z,2.80
2017-11-29T06:10:12.524Z,2.80
2017-11-29T06:12:39.994Z,2.90
2017-11-29T06:15:07.449Z,2.90
2017-11-29T06:17:34.924Z,2.90
2017-11-29T06:20:02.386Z,2.90
2017-11-29T06:22:30.616Z,2.90
2017-11-29T06:24:58.077Z,2.90
2017-11-29T06:27:25.553Z,2.90
2017-11-29T06:29:53.024Z,2.90
2017-11-29T06:32:20.484Z,2.90
2017-11-29T06:34:47.969Z,3.00
2017-11-29T06:37:15.428Z,3.00
2017-11-29T06:39:42.900Z,3.10
2017-11-29T06:42:10.372Z,3.10
2017-11-29T06:44:37.837Z,3.20
2017-11-29T06:47:05.297Z,3.10
2017-11-29T06:49:32.764Z,3.10
2017-11-29T06:52:00.224Z,3.10
2017-11-29T06:54:27.690Z,3.00
2017-11-29T06:56:55.154Z,2.90
2017-11-29T06:59:22.617Z,2.90
2017-11-29T07:01:50.848Z,2.90
2017-11-29T07:04:18.316Z,2.90
2017-11-29T07:06:45.775Z,2.90
2017-11-29T07:09:13.252Z,2.90
2017-11-29T07:11:40.703Z,3.00
2017-11-29T07:14:08.177Z,3.00
2017-11-29T07:16:36.409Z,2.90
2017-11-29T07:19:03.876Z,2.90
2017-11-29T07:21:31.331Z,2.90
2017-11-29T07:23:58.804Z,2.90
2017-11-29T07:26:26.262Z,2.90
2017-11-29T07:28:53.745Z,3.00
2017-11-29T07:31:21.973Z,2.90
2017-11-29T07:33:49.441Z,2.90
2017-11-29T07:36:16.913Z,2.80
2017-11-29T07:38:44.397Z,3.00
2017-11-29T07:41:12.620Z,3.20
2017-11-29T07:43:40.080Z,3.20
2017-11-29T07:46:07.549Z,3.20
2017-11-29T07:48:35.014Z,3.10
2017-11-29T07:51:02.885Z,3.20
2017-11-29T07:53:30.340Z,3.10
2017-11-29T07:55:57.817Z,3.10
2017-11-29T07:58:26.051Z,3.10
2017-11-29T08:00:53.519Z,3.10
2017-11-29T08:03:20.979Z,3.00
2017-11-29T08:05:48.452Z,3.10
2017-11-29T08:08:16.684Z,3.10
2017-11-29T08:10:44.153Z,3.10
2017-11-29T08:13:11.612Z,3.20
2017-11-29T08:15:39.081Z,3.30
2017-11-29T08:18:06.541Z,3.30
2017-11-29T08:20:34.076Z,3.20
2017-11-29T08:23:01.538Z,3.30
2017-11-29T08:25:29.001Z,3.30
2017-11-29T08:27:56.472Z,3.30
2017-11-29T08:30:23.942Z,3.30
2017-11-29T08:32:57.028Z,3.40
2017-11-29T08:35:24.498Z,3.30
2017-11-29T08:37:52.726Z,3.50
2017-11-29T08:40:20.305Z,3.50
2017-11-29T08:42:48.556Z,3.50
2017-11-29T08:45:16.037Z,3.50
2017-11-29T08:47:43.494Z,3.50
2017-11-29T08:50:10.950Z,3.40
2017-11-29T08:52:38.421Z,3.40
2017-11-29T08:55:05.949Z,3.50
2017-11-29T08:57:33.412Z,3.40
2017-11-29T09:00:00.871Z,3.40
2017-11-29T09:02:28.388Z,3.40
2017-11-29T09:04:55.841Z,3.40
2017-11-29T09:07:23.311Z,3.50
2017-11-29T09:09:50.813Z,3.50
2017-11-29T09:12:18.349Z,3.40
2017-11-29T09:14:45.843Z,3.40
2017-11-29T09:17:14.071Z,3.50
2017-11-29T09:19:41.543Z,3.50
2017-11-29T09:22:09.011Z,3.50
2017-11-29T09:24:36.469Z,3.60
2017-11-29T09:27:04.600Z,3.60
2017-11-29T09:29:32.060Z,3.70
2017-11-29T09:31:59.547Z,3.70
2017-11-29T09:34:27.000Z,3.60
2017-11-29T09:36:54.471Z,3.70
2017-11-29T09:39:21.933Z,3.70
2017-11-29T09:41:49.408Z,3.80
2017-11-29T09:44:17.637Z,3.80
2017-11-29T09:46:45.121Z,3.80
2017-11-29T09:49:12.578Z,3.80
2017-11-29T09:51:40.050Z,3.70
2017-11-29T09:54:08.277Z,3.80
2017-11-29T09:56:35.749Z,3.80
2017-11-29T09:59:03.218Z,3.90
2017-11-29T10:01:30.676Z,4.00
2017-11-29T10:03:58.152Z,4.00
2017-11-29T10:06:26.373Z,4.00
2017-11-29T10:08:53.885Z,4.00
2017-11-29T10:11:22.130Z,4.00
2017-11-29T10:13:49.596Z,4.00
2017-11-29T10:16:17.069Z,3.90
2017-11-29T10:18:45.308Z,3.90
2017-11-29T10:21:12.768Z,3.90
2017-11-29T10:23:40.502Z,4.00
2017-11-29T10:26:08.095Z,4.10
2017-11-29T10:28:35.596Z,4.10
2017-11-29T10:31:03.825Z,4.10
2017-11-29T10:33:31.664Z,4.00
2017-11-29T10:35:59.189Z,3.90
2017-11-29T10:38:27.444Z,4.00
2017-11-29T10:40:54.896Z,3.90
2017-11-29T10:43:22.373Z,4.00
2017-11-29T10:45:50.613Z,3.90
2017-11-29T10:48:18.084Z,3.90
2017-11-29T10:50:45.544Z,3.80
2017-11-29T10:53:13.022Z,3.80
2017-11-29T10:55:41.257Z,3.80
2017-11-29T10:58:08.725Z,3.80
2017-11-29T11:00:36.184Z,3.90
2017-11-29T11:03:03.659Z,4.00
2017-11-29T11:05:31.121Z,4.00
2017-11-29T11:07:59.360Z,4.10
2017-11-29T11:10:26.819Z,4.10
2017-11-29T11:12:54.284Z,4.20
2017-11-29T11:15:21.763Z,4.30
2017-11-29T11:17:49.991Z,4.30
2017-11-29T11:20:17.456Z,4.30
2017-11-29T11:22:44.917Z,4.40
2017-11-29T11:25:12.389Z,4.60
2017-11-29T11:27:40.109Z,4.50
2017-11-29T11:30:07.586Z,4.40
2017-11-29T11:32:35.044Z,4.50
2017-11-29T11:35:02.518Z,4.50
2017-11-29T11:37:29.972Z,4.60
2017-11-29T11:39:57.446Z,4.70
2017-11-29T11:42:24.963Z,4.70
2017-11-29T11:44:52.424Z,4.70
2017-11-29T11:47:19.895Z,4.50
2017-11-29T11:49:47.361Z,4.50
2017-11-29T11:52:14.820Z,4.40
2017-11-29T11:54:42.292Z,4.40
2017-11-29T11:57:09.748Z,4.40
2017-11-29T11:59:37.245Z,4.40
2017-11-29T12:02:04.702Z,4.20
2017-11-29T12:04:32.168Z,4.10
2017-11-29T12:06:59.626Z,4.00
2017-11-29T12:09:27.092Z,4.10
2017-11-29T12:11:54.561Z,4.20
2017-11-29T12:14:22.026Z,4.30
2017-11-29T12:16:49.492Z,4.30
2017-11-29T12:19:16.952Z,4.30
2017-11-29T12:21:44.429Z,4.20
2017-11-29T12:24:12.650Z,4.20
2017-11-29T12:26:40.117Z,4.20
2017-11-29T12:29:07.576Z,4.20
2017-11-29T12:31:35.048Z,4.10
2017-11-29T12:34:02.514Z,4.10
2017-11-29T12:36:29.998Z,4.20
2017-11-29T12:38:58.228Z,4.40
2017-11-29T12:41:25.693Z,4.40
2017-11-29T12:43:53.152Z,4.40
2017-11-29T12:46:20.624Z,4.30
2017-11-29T12:49:00.013Z,4.20
2017-11-29T12:51:27.469Z,4.30
2017-11-29T12:53:54.930Z,4.40
2017-11-29T12:56:22.409Z,4.50
2017-11-29T12:58:49.869Z,4.70
2017-11-29T13:01:17.354Z,4.50
2017-11-29T13:03:45.584Z,4.20
2017-11-29T13:06:13.043Z,4.20
2017-11-29T13:08:40.508Z,4.00
2017-11-29T13:11:07.986Z,3.90
2017-11-29T13:13:35.670Z,3.90
2017-11-29T13:16:03.125Z,3.80
2017-11-29T13:18:31.369Z,4.00
2017-11-29T13:20:58.840Z,4.00
2017-11-29T13:23:26.308Z,4.20
2017-11-29T13:25:54.541Z,5.30
2017-11-29T13:28:22.012Z,5.30
2017-11-29T13:30:49.482Z,5.10
2017-11-29T13:33:16.953Z,4.90
2017-11-29T13:35:45.173Z,4.60
2017-11-29T13:38:12.637Z,4.60
2017-11-29T13:40:40.101Z,4.40
2017-11-29T13:43:07.573Z,4.40
2017-11-29T13:45:35.034Z,4.40
2017-11-29T13:48:02.534Z,4.40
2017-11-29T13:50:29.990Z,4.30
2017-11-29T13:52:57.474Z,4.20
2017-11-29T13:55:24.929Z,4.20
2017-11-29T13:57:52.470Z,4.20
2017-11-29T14:00:19.938Z,4.10
2017-11-29T14:02:47.415Z,4.10
2017-11-29T14:05:14.868Z,4.10
2017-11-29T14:07:42.352Z,4.20
2017-11-29T14:10:09.814Z,4.10
2017-11-29T14:12:37.270Z,4.10
2017-11-29T14:15:04.742Z,3.90
2017-11-29T14:17:32.965Z,3.90
2017-11-29T14:20:00.441Z,3.90
2017-11-29T14:22:27.901Z,3.90
2017-11-29T14:24:55.369Z,3.80
2017-11-29T14:27:22.843Z,3.60
2017-11-29T14:29:51.084Z,3.50
2017-11-29T14:32:18.544Z,3.50
2017-11-29T14:34:46.009Z,3.50
2017-11-29T14:37:14.291Z,3.50
2017-11-29T14:51:25.577Z,3.40
2017-11-29T14:53:53.805Z,3.30
2017-11-29T14:56:21.260Z,3.30
2017-11-29T14:58:48.728Z,3.40
2017-11-29T15:01:16.191Z,3.30
2017-11-29T15:03:43.658Z,3.20
2017-11-29T15:06:11.115Z,3.10
2017-11-29T15:08:38.601Z,3.10
2017-11-29T15:11:06.066Z,3.00
2017-11-29T15:13:33.601Z,3.10
2017-11-29T15:27:59.457Z,3.90
2017-11-29T15:30:26.925Z,3.90
2017-11-29T15:45:09.312Z,2.60
2017-11-29T15:47:37.560Z,2.60
2017-11-29T15:50:05.069Z,2.60
2017-11-29T15:52:33.296Z,2.60
2017-11-29T15:55:00.764Z,2.60
2017-11-29T15:57:28.252Z,2.60
2017-11-29T15:59:55.737Z,2.60
2017-11-29T16:02:23.207Z,2.70
2017-11-29T16:04:50.693Z,2.60
2017-11-29T16:07:18.156Z,2.70
2017-11-29T16:09:45.619Z,2.50
2017-11-29T16:12:13.868Z,2.60
2017-11-29T16:14:41.333Z,2.60
2017-11-29T16:17:08.805Z,2.60
2017-11-29T16:19:36.268Z,2.60
2017-11-29T16:22:03.738Z,2.50
2017-11-29T16:24:31.530Z,2.50
2017-11-29T16:26:59.013Z,2.50
2017-11-29T16:29:26.470Z,2.50
2017-11-29T16:31:53.942Z,2.40
2017-11-29T16:34:21.474Z,2.40
2017-11-29T16:36:48.949Z,2.40
2017-11-29T16:39:16.400Z,2.30
2017-11-29T16:41:43.868Z,2.20
2017-11-29T16:44:11.341Z,2.20
2017-11-29T16:46:38.808Z,2.20
2017-11-29T16:49:06.265Z,2.10
2017-11-29T16:51:33.737Z,2.10
2017-11-29T16:54:01.197Z,2.10
2017-11-29T16:56:29.440Z,2.10
2017-11-29T16:58:56.901Z,2.10
2017-11-29T17:01:24.369Z,2.20
2017-11-29T17:03:51.832Z,2.20
2017-11-29T17:06:19.316Z,2.20
2017-11-29T17:08:46.790Z,2.30
2017-11-29T17:11:14.250Z,2.20
2017-11-29T17:13:41.718Z,2.30
2017-11-29T17:16:09.249Z,2.30
2017-11-29T17:18:36.717Z,2.20
2017-11-29T17:21:04.184Z,2.20
2017-11-29T17:23:31.654Z,2.10
2017-11-29T17:25:59.117Z,2.00
2017-11-29T17:28:26.590Z,2.10
2017-11-29T17:30:54.053Z,2.20
2017-11-29T17:33:21.542Z,2.20
2017-11-29T17:35:49.790Z,2.00
2017-11-29T17:38:17.256Z,2.00
2017-11-29T17:40:45.490Z,2.00
2017-11-29T17:43:12.974Z,1.90
2017-11-29T17:45:40.441Z,1.90
2017-11-29T17:48:07.912Z,1.80
2017-11-29T17:50:36.140Z,1.80
2017-11-29T17:53:03.625Z,1.80
2017-11-29T17:55:31.089Z,1.80
2017-11-29T17:57:59.075Z,1.80
2017-11-29T18:00:26.544Z,1.90
2017-11-29T18:02:53.995Z,1.90
2017-11-29T18:05:21.485Z,2.00
2017-11-29T18:07:48.942Z,2.00
2017-11-29T18:10:16.418Z,1.90
2017-11-29T18:12:43.886Z,1.90
2017-11-29T18:15:11.369Z,1.90
2017-11-29T18:17:38.841Z,1.90
2017-11-29T18:20:06.309Z,1.90
2017-11-29T18:22:33.780Z,1.90
2017-11-29T18:25:01.940Z,1.90
2017-11-29T18:27:30.296Z,1.90
2017-11-29T18:29:58.537Z,1.90
2017-11-29T18:32:26.802Z,1.90
2017-11-29T18:34:54.264Z,1.90
2017-11-29T18:37:21.737Z,1.80
2017-11-29T18:39:49.225Z,1.80
2017-11-29T18:42:16.685Z,1.70
2017-11-29T18:44:44.166Z,1.60
2017-11-29T18:47:11.625Z,1.60
2017-11-29T18:49:39.105Z,1.60
2017-11-29T18:52:06.566Z,1.60
2017-11-29T18:54:34.045Z,1.60
2017-11-29T18:57:02.278Z,1.60
2017-11-29T18:59:29.754Z,1.60
2017-11-29T19:01:57.226Z,1.60
2017-11-29T19:04:24.737Z,1.60
2017-11-29T19:06:52.197Z,1.60
2017-11-29T19:09:19.684Z,1.60
2017-11-29T19:11:47.145Z,1.60
2017-11-29T19:14:14.616Z,1.60
2017-11-29T19:16:42.082Z,1.60
2017-11-29T19:19:10.351Z,1.50
2017-11-29T19:21:38.603Z,1.40
2017-11-29T19:24:06.098Z,1.40
2017-11-29T19:26:34.321Z,1.30
2017-11-29T19:29:01.786Z,1.30
2017-11-29T19:31:29.252Z,1.20
2017-11-29T19:33:56.738Z,1.10
2017-11-29T19:36:24.986Z,1.00
2017-11-29T19:38:52.444Z,1.00
2017-11-29T19:41:19.932Z,1.20
2017-11-29T19:43:48.169Z,2.70
2017-11-29T19:46:15.644Z,2.70
2017-11-29T19:48:43.104Z,3.10
2017-11-29T19:51:10.584Z,3.40
2017-11-29T19:53:38.044Z,3.40
2017-11-29T19:56:05.518Z,3.10
2017-11-29T19:58:32.974Z,2.60
2017-11-29T20:01:00.460Z,2.20
2017-11-29T20:03:28.679Z,1.70
2017-11-29T20:05:56.922Z,1.50
2017-11-29T20:08:24.386Z,1.50
2017-11-29T20:10:51.857Z,1.40
2017-11-29T20:13:19.313Z,1.20
2017-11-29T20:15:46.773Z,1.20
2017-11-29T20:18:15.005Z,1.00
2017-11-29T20:20:43.252Z,1.00
2017-11-29T20:23:10.708Z,0.90
2017-11-29T20:25:38.186Z,0.80
2017-11-29T20:28:05.640Z,0.70
2017-11-29T20:30:33.126Z,0.60
2017-11-29T20:33:00.609Z,0.60
2017-11-29T20:35:28.093Z,0.50
2017-11-29T20:37:55.544Z,0.50
2017-11-29T20:40:23.952Z,0.40
2017-11-29T20:42:51.404Z,0.30
2017-11-29T20:45:18.864Z,0.20
2017-11-29T20:47:46.340Z,0.10
2017-11-29T20:50:13.810Z,0.20
2017-11-29T20:52:53.184Z,0.20
2017-11-29T20:55:20.652Z,0.20
2017-11-29T20:57:48.132Z,0.20
2017-11-29T21:00:15.590Z,0.20
2017-11-29T21:02:43.064Z,0.20
2017-11-29T21:05:10.532Z,0.40
2017-11-29T21:07:38.001Z,0.70
2017-11-29T21:10:05.466Z,0.70
2017-11-29T21:12:33.704Z,0.60
2017-11-29T21:15:01.161Z,0.60
2017-11-29T21:17:28.637Z,0.50
2017-11-29T21:19:56.088Z,0.40
2017-11-29T21:22:23.562Z,0.40
2017-11-29T21:24:51.035Z,0.30
2017-11-29T21:27:19.260Z,0.20
2017-11-29T21:29:46.729Z,0.10
2017-11-29T21:32:14.222Z,0.10
2017-11-29T21:34:42.448Z,0.10
2017-11-29T21:37:09.907Z,0.10
2017-11-29T21:39:37.368Z,0.00
2017-11-29T21:42:04.827Z,0.00
2017-11-29T21:44:32.310Z,-0.10
2017-11-29T21:46:59.778Z,-0.10
2017-11-29T21:49:28.013Z,-0.20
2017-11-29T21:51:55.476Z,-0.20
2017-11-29T21:54:22.969Z,-0.10
2017-11-29T21:56:51.221Z,-0.20
2017-11-29T21:59:18.700Z,-0.20
2017-11-29T22:01:46.948Z,-0.20
2017-11-29T22:04:14.427Z,-0.20
2017-11-29T22:06:42.685Z,-0.20
2017-11-29T22:09:10.246Z,-0.20
2017-11-29T22:11:37.797Z,-0.20
2017-11-29T22:14:05.280Z,-0.20
2017-11-29T22:16:33.590Z,-0.20
2017-11-29T22:19:01.093Z,-0.20
2017-11-29T22:21:28.580Z,-0.20
2017-11-29T22:23:56.845Z,-0.30
2017-11-29T22:26:25.085Z,-0.30
2017-11-29T22:28:52.557Z,-0.30
2017-11-29T22:31:20.120Z,-0.30
2017-11-29T22:33:47.680Z,-0.10
2017-11-29T22:36:15.916Z,0.00
2017-11-29T22:38:43.417Z,0.00
2017-11-29T22:41:10.964Z,-0.10
2017-11-29T22:43:38.529Z,-0.20
2017-11-29T22:46:06.009Z,-0.30
2017-11-29T22:48:34.232Z,-0.30
2017-11-29T22:51:01.721Z,-0.30
2017-11-29T22:53:29.184Z,-0.30
2017-11-29T22:55:56.728Z,-0.30
2017-11-29T22:58:24.964Z,-0.20
2017-11-29T23:00:52.449Z,-0.20
2017-11-29T23:03:19.925Z,-0.20
2017-11-29T23:05:47.475Z,-0.20
2017-11-29T23:08:14.940Z,-0.20
2017-11-29T23:10:43.184Z,-0.10
2017-11-29T23:13:10.648Z,-0.10
2017-11-29T23:15:38.233Z,-0.10
2017-11-29T23:18:06.458Z,0.00
2017-11-29T23:20:33.933Z,0.00
2017-11-29T23:23:01.517Z,0.00
2017-11-29T23:25:28.991Z,0.10
2017-11-29T23:27:56.532Z,0.10
2017-11-29T23:30:25.513Z,0.10
2017-11-29T23:32:52.984Z,0.10
2017-11-29T23:35:20.545Z,0.10
2017-11-29T23:37:49.516Z,0.10
2017-11-29T23:40:17.009Z,0.10
2017-11-29T23:42:44.660Z,0.10
2017-11-29T23:45:12.182Z,0.10
2017-11-29T23:47:39.660Z,0.20
2017-11-29T23:50:07.116Z,0.20
2017-11-29T23:52:34.596Z,0.20
2017-11-29T23:55:02.066Z,0.20
2017-11-29T23:57:30.309Z,0.40
2017-11-29T23:59:57.776Z,0.30
